Terminal Aerodrome Forecast
Issued by NWS

Home | Current Version | Previous Version | Graphics & Text | Print | Product List | Glossary On
Versions: 1 2 3 4 5 6 7 8 9 10 11 12 13 14 15 16 17 18
000
FTUS43 KIWX 232300
TAFSBN
TAF
KSBN 232338Z 2400/2424 09007KT P6SM OVC015
      TEMPO 2400/2402 SCT015 BKN040
     FM240200 09006KT P6SM FEW040 SCT250
     FM241700 12010KT P6SM BKN250=

USA.gov is the U.S. government's official web portal to all federal, state and local government web resources and services.